Time;durP1;ratioP1;P1;durP2;ratioP2;P2;SDS_P1;SDS_P2;PMS_P1;PMS_P2;Temp;Humidity;BMP_temperature;BMP_pressure;BME280_temperature;BME280_humidity;BME280_pressure;Samples;Min_cycle;Max_cycle;Signal;HPM_P1;HPM_P2
2021/01/03 00:02:01;;;;;;;30.23;22.20;;;;;;;1.88;87.24;101423.19;1781948;80;20950;-52
2021/01/03 00:04:29;;;;;;;33.55;25.12;;;;;;;1.90;87.29;101417.05;1782009;79;22102;-52
2021/01/03 00:06:57;;;;;;;35.90;23.00;;;;;;;1.92;87.33;101433.14;1781976;80;21520;-52
2021/01/03 00:09:25;;;;;;;34.83;24.35;;;;;;;1.93;87.36;101426.67;1781946;80;21108;-52
2021/01/03 00:11:52;;;;;;;35.88;23.92;;;;;;;1.95;87.27;101423.27;1781900;80;21611;-52
2021/01/03 00:14:20;;;;;;;33.13;23.55;;;;;;;1.96;87.25;101423.08;1782020;80;20982;-52
2021/01/03 00:16:53;;;;;;;35.38;24.95;;;;;;;1.95;87.23;101430.05;1781694;79;21359;-52
2021/01/03 00:19:21;;;;;;;32.45;20.90;;;;;;;1.95;87.24;101434.11;1781877;80;21037;-52
2021/01/03 00:21:50;;;;;;;33.20;22.48;;;;;;;1.93;87.21;101437.51;1781810;80;21033;-52
2021/01/03 00:24:18;;;;;;;39.10;25.88;;;;;;;1.93;87.22;101438.86;1781859;80;20962;-52
2021/01/03 00:26:46;;;;;;;34.23;24.15;;;;;;;1.92;87.21;101442.09;1781971;80;20990;-52
2021/01/03 00:29:18;;;;;;;35.00;23.60;;;;;;;1.93;87.25;101440.22;1781921;80;21050;-52
2021/01/03 00:31:49;;;;;;;31.73;23.57;;;;;;;1.92;87.31;101443.45;1781898;80;21523;-52
2021/01/03 00:34:17;;;;;;;37.15;25.82;;;;;;;1.90;87.24;101438.72;1781900;79;21136;-52
2021/01/03 00:36:45;;;;;;;39.92;25.02;;;;;;;1.87;87.28;101432.34;1781838;79;21001;-52
2021/01/03 00:39:12;;;;;;;43.38;26.80;;;;;;;1.87;87.29;101435.05;1781805;80;20989;-51
2021/01/03 00:41:40;;;;;;;36.53;26.62;;;;;;;1.88;87.35;101434.02;1781842;80;21372;-52
2021/01/03 00:44:08;;;;;;;34.03;24.27;;;;;;;1.90;87.29;101438.72;1781830;80;21557;-52
2021/01/03 00:46:36;;;;;;;35.15;25.00;;;;;;;1.87;87.19;101439.11;1781847;80;21013;-52
2021/01/03 00:49:03;;;;;;;36.75;24.50;;;;;;;1.85;87.11;101431.70;1782017;80;21030;-52
2021/01/03 00:51:31;;;;;;;36.75;24.52;;;;;;;1.82;86.95;101430.73;1782221;80;21576;-52
2021/01/03 00:53:58;;;;;;;36.48;25.80;;;;;;;1.80;86.82;101424.65;1782008;80;21202;-52
2021/01/03 00:56:27;;;;;;;38.67;26.00;;;;;;;1.77;86.75;101421.80;1782047;80;21041;-52
2021/01/03 00:58:54;;;;;;;38.33;24.65;;;;;;;1.77;86.67;101427.74;1781861;80;21357;-52
2021/01/03 01:01:22;;;;;;;34.23;22.77;;;;;;;1.75;86.64;101420.34;1782065;80;22120;-51
2021/01/03 01:03:50;;;;;;;39.58;25.85;;;;;;;1.71;86.45;101427.98;1782032;79;21065;-52
2021/01/03 01:06:18;;;;;;;36.00;24.90;;;;;;;1.62;86.29;101424.55;1782000;80;21203;-52
2021/01/03 01:08:47;;;;;;;34.63;24.77;;;;;;;1.58;86.18;101427.31;1781911;80;21061;-51
2021/01/03 01:11:14;;;;;;;34.10;25.00;;;;;;;1.55;86.09;101430.41;1782016;79;21599;-52
2021/01/03 01:13:41;;;;;;;38.33;25.17;;;;;;;1.50;85.96;101420.64;1782022;80;20978;-52
2021/01/03 01:16:09;;;;;;;35.65;24.57;;;;;;;1.46;85.94;101424.25;1782032;80;21025;-52
2021/01/03 01:18:37;;;;;;;32.30;21.95;;;;;;;1.41;85.85;101424.49;1782144;80;21192;-52
2021/01/03 01:21:06;;;;;;;34.63;23.22;;;;;;;1.33;85.73;101416.80;1781901;79;21029;-52
2021/01/03 01:23:34;;;;;;;39.70;26.40;;;;;;;1.27;85.76;101418.91;1782233;80;21350;-52
2021/01/03 01:26:02;;;;;;;34.15;24.02;;;;;;;1.23;85.73;101414.03;1781898;80;20981;-51
2021/01/03 01:28:30;;;;;;;36.30;25.80;;;;;;;1.18;85.69;101415.96;1782024;80;21049;-51
2021/01/03 01:30:58;;;;;;;36.20;24.45;;;;;;;1.10;85.71;101407.44;1773838;80;21198;-52
2021/01/03 01:33:25;;;;;;;34.18;22.30;;;;;;;1.09;85.77;101407.63;1764760;81;20998;-51
2021/01/03 01:35:53;;;;;;;31.55;22.45;;;;;;;1.03;85.67;101411.91;1765037;81;21022;-52
2021/01/03 01:38:20;;;;;;;34.95;24.98;;;;;;;0.99;85.76;101407.37;1764897;81;20987;-52
2021/01/03 01:40:48;;;;;;;39.73;25.32;;;;;;;0.98;85.93;101406.20;1764918;81;21078;-52
2021/01/03 01:43:17;;;;;;;33.45;23.55;;;;;;;0.96;86.02;101409.09;1765037;81;21244;-52
2021/01/03 01:45:46;;;;;;;35.78;23.95;;;;;;;0.99;86.09;101412.78;1764935;81;21617;-52
2021/01/03 01:48:36;;;;;;;35.15;24.72;;;;;;;0.98;86.18;101414.33;1764766;81;21026;-52
2021/01/03 01:51:26;;;;;;;33.30;22.17;;;;;;;1.07;86.20;101414.55;1846807;76;28678;-51
2021/01/03 01:54:25;;;;;;;33.45;23.52;;;;;;;1.01;85.91;101409.36;1844488;76;28976;-50
2021/01/03 01:57:13;;;;;;;33.77;25.20;;;;;;;0.89;85.81;101412.22;1817176;79;20926;-51
2021/01/03 02:00:04;;;;;;;37.50;25.88;;;;;;;0.85;86.06;101411.73;1816662;79;21443;-50
2021/01/03 02:02:57;;;;;;;35.45;24.87;;;;;;;0.84;85.99;101418.69;1816875;79;20973;-51
2021/01/03 02:05:35;;;;;;;42.20;27.05;;;;;;;0.83;86.11;101422.44;1767238;79;20993;-51
2021/01/03 02:08:32;;;;;;;34.73;23.65;;;;;;;0.84;86.31;101421.39;1784709;80;21040;-51
2021/01/03 02:11:01;;;;;;;37.15;26.35;;;;;;;0.86;86.22;101427.47;1784610;80;21033;-51
2021/01/03 02:13:45;;;;;;;40.70;26.23;;;;;;;0.84;86.22;101424.09;1784553;80;21316;-51
2021/01/03 02:16:16;;;;;;;35.73;25.23;;;;;;;0.81;86.15;101427.17;1727717;80;21639;-50
2021/01/03 02:18:44;;;;;;;31.42;23.22;;;;;;;0.76;86.15;101428.22;1784686;80;21002;-52
2021/01/03 02:21:23;;;;;;;37.63;24.75;;;;;;;0.71;86.26;101431.48;1784473;80;20986;-50
2021/01/03 02:24:14;;;;;;;42.30;26.17;;;;;;;0.73;86.59;101424.05;1784507;80;21009;-51
2021/01/03 02:26:47;;;;;;;37.85;25.92;;;;;;;0.78;86.76;101433.78;1784560;80;21284;-51
2021/01/03 02:29:16;;;;;;;34.88;23.40;;;;;;;0.95;87.55;101428.22;1784403;79;21053;-51
2021/01/03 02:31:49;;;;;;;29.02;22.27;;;;;;;1.11;87.90;101425.84;1784588;80;21037;-52
2021/01/03 02:34:24;;;;;;;37.05;24.55;;;;;;;1.21;88.15;101435.88;1783926;80;21084;-52
2021/01/03 02:37:10;;;;;;;33.08;23.50;;;;;;;1.43;88.54;101420.58;1846881;76;22665;-51
2021/01/03 02:39:55;;;;;;;30.35;20.60;;;;;;;1.51;88.64;101427.22;1816693;79;21009;-51
2021/01/03 02:42:32;;;;;;;28.83;22.25;;;;;;;1.64;88.73;101429.25;1816857;79;21230;-51
2021/01/03 02:45:01;;;;;;;39.90;24.27;;;;;;;1.71;88.58;101427.46;1816869;78;20997;-51
2021/01/03 02:47:32;;;;;;;38.48;26.33;;;;;;;1.76;88.41;101429.63;1816978;79;21568;-51
2021/01/03 02:49:59;;;;;;;34.50;24.95;;;;;;;1.75;88.18;101429.29;1816781;78;20950;-51
2021/01/03 02:52:31;;;;;;;36.42;24.92;;;;;;;1.69;88.09;101426.83;1816739;78;20986;-51
2021/01/03 02:54:58;;;;;;;38.60;24.60;;;;;;;1.65;88.13;101424.17;1816965;79;22129;-51
2021/01/03 02:57:27;;;;;;;33.45;22.48;;;;;;;1.58;88.23;101425.95;1816734;79;21021;-52
2021/01/03 02:59:54;;;;;;;43.90;28.12;;;;;;;1.55;88.39;101431.23;1816825;79;21001;-52
2021/01/03 03:02:21;;;;;;;39.40;26.17;;;;;;;1.52;88.37;101433.49;1816793;78;21057;-52
2021/01/03 03:04:50;;;;;;;44.70;25.20;;;;;;;1.47;88.48;101431.85;1799197;79;21002;-51
2021/01/03 03:07:17;;;;;;;37.80;24.90;;;;;;;1.48;88.68;101429.48;1784596;80;23540;-50
2021/01/03 03:09:45;;;;;;;38.60;24.20;;;;;;;1.49;88.66;101439.29;1784341;80;21001;-51
2021/01/03 03:12:12;;;;;;;44.18;27.93;;;;;;;1.47;88.67;101431.36;1784644;80;21493;-50
2021/01/03 03:14:40;;;;;;;41.33;27.22;;;;;;;1.44;88.65;101434.94;1784498;80;21025;-51
2021/01/03 03:17:08;;;;;;;31.02;23.55;;;;;;;1.49;88.88;101431.16;1784594;80;20989;-51
2021/01/03 03:19:35;;;;;;;42.25;28.87;;;;;;;1.53;88.88;101437.36;1784672;80;21369;-50
2021/01/03 03:22:03;;;;;;;40.78;25.72;;;;;;;1.57;88.83;101436.98;1784393;80;21064;-51
2021/01/03 03:24:31;;;;;;;40.55;26.62;;;;;;;1.62;88.88;101439.97;1784701;80;20970;-51
2021/01/03 03:27:01;;;;;;;39.80;26.25;;;;;;;1.63;88.51;101438.43;1784448;80;21255;-51
2021/01/03 03:29:28;;;;;;;39.27;28.12;;;;;;;1.60;88.53;101440.17;1784678;80;21010;-51
2021/01/03 03:31:56;;;;;;;41.68;27.35;;;;;;;1.57;88.42;101439.16;1784514;80;21206;-50
2021/01/03 03:34:25;;;;;;;35.58;23.95;;;;;;;1.56;88.57;101442.92;1784531;80;21037;-52
2021/01/03 03:36:54;;;;;;;41.80;27.70;;;;;;;1.57;88.57;101440.52;1796539;79;21127;-52
2021/01/03 03:39:23;;;;;;;36.23;23.27;;;;;;;1.56;88.55;101436.16;1799051;79;21040;-52
2021/01/03 03:41:57;;;;;;;35.48;22.45;;;;;;;1.56;88.66;101440.22;1798833;79;21032;-52
2021/01/03 03:44:25;;;;;;;39.95;26.62;;;;;;;1.62;88.83;101434.55;1799156;79;21268;-52
2021/01/03 03:46:55;;;;;;;41.28;27.55;;;;;;;1.71;88.85;101434.76;1798677;79;21595;-52
2021/01/03 03:49:23;;;;;;;35.75;24.98;;;;;;;1.79;88.88;101435.18;1798666;79;21575;-52
2021/01/03 03:51:57;;;;;;;39.60;25.80;;;;;;;1.87;88.74;101437.27;1798342;79;20985;-52
2021/01/03 03:54:25;;;;;;;38.10;25.88;;;;;;;1.92;88.55;101446.16;1798437;79;20981;-52
2021/01/03 03:56:55;;;;;;;37.33;23.07;;;;;;;1.93;88.21;101447.85;1798427;79;21116;-52
2021/01/03 03:59:25;;;;;;;38.83;25.92;;;;;;;1.90;87.99;101449.06;1797597;79;21060;-52
2021/01/03 04:01:53;;;;;;;38.00;25.90;;;;;;;1.88;87.93;101444.86;1798526;79;20977;-52
2021/01/03 04:04:22;;;;;;;41.28;26.50;;;;;;;1.84;87.79;101442.20;1798430;78;21603;-52
2021/01/03 04:06:50;;;;;;;35.38;25.43;;;;;;;1.87;88.04;101442.68;1798591;79;21319;-52
2021/01/03 04:09:17;;;;;;;38.33;26.00;;;;;;;1.88;87.82;101450.28;1798339;79;21279;-52
2021/01/03 04:11:48;;;;;;;34.78;23.62;;;;;;;1.85;87.70;101443.36;1798413;79;21028;-52
2021/01/03 04:14:19;;;;;;;33.95;22.77;;;;;;;1.84;87.69;101451.69;1798386;79;21004;-52
2021/01/03 04:16:57;;;;;;;30.85;20.23;;;;;;;1.82;87.72;101453.77;1798400;79;20989;-53
2021/01/03 04:19:25;;;;;;;35.65;24.00;;;;;;;1.81;87.59;101452.08;1796807;79;21033;-52
2021/01/03 04:21:58;;;;;;;34.92;24.00;;;;;;;1.76;87.64;101456.71;1798389;79;21314;-52
2021/01/03 04:24:27;;;;;;;37.45;25.50;;;;;;;1.78;87.72;101456.00;1798613;79;20993;-52
2021/01/03 04:27:02;;;;;;;30.82;19.42;;;;;;;1.74;87.59;101453.34;1798396;79;21008;-52
2021/01/03 04:29:29;;;;;;;35.60;24.07;;;;;;;1.72;87.82;101454.05;1797954;79;20976;-52
2021/01/03 04:32:03;;;;;;;40.08;25.08;;;;;;;1.68;87.81;101460.87;1798478;79;20953;-52
2021/01/03 04:34:31;;;;;;;38.98;24.45;;;;;;;1.69;87.95;101458.50;1798473;79;21199;-52
2021/01/03 04:36:59;;;;;;;33.05;22.90;;;;;;;1.70;87.94;101465.08;1798213;79;21021;-52
2021/01/03 04:39:28;;;;;;;36.95;22.95;;;;;;;1.68;87.95;101466.30;1798378;79;21040;-52
2021/01/03 04:42:01;;;;;;;34.88;24.37;;;;;;;1.66;88.04;101461.06;1798301;79;20997;-52
2021/01/03 04:44:39;;;;;;;34.58;22.50;;;;;;;1.64;87.99;101460.92;1798650;79;20925;-52
2021/01/03 04:47:28;;;;;;;33.35;20.70;;;;;;;1.61;88.14;101455.37;1798508;79;21332;-52
2021/01/03 04:50:36;;;;;;;30.55;19.40;;;;;;;1.59;88.14;101462.85;1798395;79;22126;-52
2021/01/03 04:53:49;;;;;;;29.87;20.08;;;;;;;1.56;88.27;101448.34;1798282;79;21084;-52
2021/01/03 04:56:22;;;;;;;35.98;22.90;;;;;;;1.53;88.28;101467.15;1798293;79;21234;-52
2021/01/03 04:59:14;;;;;;;30.60;19.62;;;;;;;1.50;88.46;101463.97;1798483;79;20958;-52
2021/01/03 05:02:06;;;;;;;27.10;19.17;;;;;;;1.51;88.46;101468.36;1798542;79;21343;-52
2021/01/03 05:05:22;;;;;;;27.65;19.48;;;;;;;1.50;88.48;101458.55;1798436;78;21714;-52
2021/01/03 05:08:18;;;;;;;27.55;19.70;;;;;;;1.48;88.57;101460.09;1798330;79;21311;-52
2021/01/03 05:10:45;;;;;;;29.65;20.48;;;;;;;1.49;88.59;101459.08;1798346;79;20982;-52
2021/01/03 05:13:42;;;;;;;29.40;18.55;;;;;;;1.45;88.57;101465.06;1798606;79;20929;-52
2021/01/03 05:16:13;;;;;;;26.45;18.12;;;;;;;1.44;88.58;101470.97;1798624;79;21669;-52
2021/01/03 05:18:44;;;;;;;22.82;16.12;;;;;;;1.42;88.53;101462.73;1798207;79;21024;-53
2021/01/03 05:21:12;;;;;;;23.55;16.82;;;;;;;1.41;88.73;101473.23;1798343;79;21354;-52
2021/01/03 05:23:42;;;;;;;23.83;16.60;;;;;;;1.42;88.80;101478.98;1798331;79;21421;-52
2021/01/03 05:26:12;;;;;;;24.27;16.48;;;;;;;1.43;88.80;101465.74;1795776;79;20972;-52
2021/01/03 05:28:39;;;;;;;24.47;16.20;;;;;;;1.43;88.85;101477.92;1746159;79;21218;-52
2021/01/03 05:31:17;;;;;;;28.70;19.92;;;;;;;1.46;89.02;101476.19;1798392;79;21025;-52
2021/01/03 05:33:58;;;;;;;26.62;17.67;;;;;;;1.49;88.90;101473.97;1798424;79;21041;-52
2021/01/03 05:36:33;;;;;;;25.70;17.50;;;;;;;1.48;88.80;101472.28;1792988;79;21008;-52
2021/01/03 05:39:03;;;;;;;30.40;18.92;;;;;;;1.50;88.85;101481.07;1783887;79;20946;-52
2021/01/03 05:41:39;;;;;;;25.50;17.65;;;;;;;1.43;88.67;101481.49;1783718;80;21368;-52
2021/01/03 05:44:29;;;;;;;24.98;16.05;;;;;;;1.37;88.84;101473.61;1783988;80;26621;-52
2021/01/03 05:47:23;;;;;;;25.77;16.55;;;;;;;1.34;89.11;101478.05;1783810;80;21001;-52
2021/01/03 05:50:24;;;;;;;24.12;15.10;;;;;;;1.39;89.24;101474.77;1846654;76;23391;-51
2021/01/03 05:53:06;;;;;;;25.62;17.80;;;;;;;1.32;89.31;101476.02;1816849;78;20958;-50
2021/01/03 05:55:34;;;;;;;24.43;15.95;;;;;;;1.32;89.33;101473.31;1816912;79;21399;-51
2021/01/03 05:58:18;;;;;;;23.40;16.75;;;;;;;1.33;89.45;101490.38;1785354;79;21073;-51
2021/01/03 06:00:47;;;;;;;23.30;15.98;;;;;;;1.34;89.51;101472.62;1785580;79;21596;-50
2021/01/03 06:03:30;;;;;;;25.30;14.75;;;;;;;1.33;89.50;101478.20;1816844;79;20998;-51
2021/01/03 06:06:19;;;;;;;25.52;17.00;;;;;;;1.34;89.75;101487.52;1784389;79;20989;-51
2021/01/03 06:08:47;;;;;;;25.52;16.12;;;;;;;1.32;89.81;101493.62;1754397;80;21658;-53
2021/01/03 06:11:18;;;;;;;23.12;16.60;;;;;;;1.29;89.78;101484.52;1784324;80;21033;-51
2021/01/03 06:13:58;;;;;;;22.17;15.10;;;;;;;1.29;89.87;101492.64;1784590;80;21539;-51
2021/01/03 06:16:32;;;;;;;24.47;17.15;;;;;;;1.29;89.94;101484.52;1784481;80;21009;-50
2021/01/03 06:19:07;;;;;;;22.70;16.77;;;;;;;1.32;89.90;101484.14;1784651;80;21017;-51
2021/01/03 06:21:41;;;;;;;22.55;15.98;;;;;;;1.33;89.99;101493.95;1784385;80;21367;-50
2021/01/03 06:24:25;;;;;;;23.60;15.90;;;;;;;1.35;90.00;101486.47;1784552;80;21052;-50
2021/01/03 06:27:04;;;;;;;23.15;15.15;;;;;;;1.33;90.00;101491.24;1784604;80;20989;-50
2021/01/03 06:29:52;;;;;;;22.80;15.80;;;;;;;1.35;90.09;101500.00;1784382;80;21049;-50
2021/01/03 06:32:53;;;;;;;22.13;13.38;;;;;;;1.37;90.12;101493.91;1783556;80;20997;-50
2021/01/03 06:35:42;;;;;;;23.22;15.38;;;;;;;1.43;90.10;101498.23;1784627;80;21375;-50
2021/01/03 06:38:35;;;;;;;21.33;14.93;;;;;;;1.49;90.13;101493.45;1754523;80;21052;-51
2021/01/03 06:41:22;;;;;;;24.82;15.93;;;;;;;1.54;90.07;101497.77;1784579;80;21033;-51
2021/01/03 06:44:28;;;;;;;22.15;15.43;;;;;;;1.58;89.99;101500.44;1784347;80;21056;-51
2021/01/03 06:47:37;;;;;;;24.02;15.90;;;;;;;1.61;89.90;101496.52;1771393;80;21013;-51
2021/01/03 06:50:29;;;;;;;23.50;15.48;;;;;;;1.63;89.80;101491.24;1798111;79;21897;-50
2021/01/03 06:53:04;;;;;;;21.75;15.45;;;;;;;1.63;89.67;101496.66;1798933;79;20997;-51
2021/01/03 06:55:44;;;;;;;22.50;15.93;;;;;;;1.62;89.56;101496.84;1761570;81;24012;-51
2021/01/03 06:58:22;;;;;;;21.17;14.90;;;;;;;1.61;89.56;101496.52;1762514;80;21081;-51
2021/01/03 07:01:04;;;;;;;23.55;15.53;;;;;;;1.64;89.61;101501.55;1761119;81;21059;-51
2021/01/03 07:03:33;;;;;;;21.82;14.13;;;;;;;1.63;89.65;101500.72;1778484;80;21275;-51
2021/01/03 07:06:06;;;;;;;19.45;12.95;;;;;;;1.67;89.67;101493.91;1779494;80;21001;-51
2021/01/03 07:08:48;;;;;;;23.70;15.32;;;;;;;1.72;89.69;101493.33;1779569;80;21282;-51
2021/01/03 07:11:50;;;;;;;22.60;14.23;;;;;;;1.77;89.63;101503.59;1779214;80;21056;-51
2021/01/03 07:14:31;;;;;;;23.98;16.57;;;;;;;1.79;89.55;101497.48;1764239;80;21026;-51
2021/01/03 07:17:05;;;;;;;22.93;15.45;;;;;;;1.81;89.58;101502.19;1760924;81;21578;-51
2021/01/03 07:19:49;;;;;;;22.65;14.35;;;;;;;1.84;89.51;101499.09;1779540;80;21544;-51
2021/01/03 07:22:24;;;;;;;19.10;13.35;;;;;;;1.83;89.27;101500.12;1760910;81;21035;-51
2021/01/03 07:25:02;;;;;;;21.05;14.43;;;;;;;1.79;89.36;101506.97;1730676;82;21055;-51
2021/01/03 07:27:43;;;;;;;18.02;13.13;;;;;;;1.77;89.49;101502.23;1779733;80;21007;-51
2021/01/03 07:30:16;;;;;;;21.95;14.93;;;;;;;1.78;89.51;101502.58;1761034;81;21205;-51
2021/01/03 07:33:00;;;;;;;21.10;14.35;;;;;;;1.77;89.51;101497.66;1779688;80;21045;-51
2021/01/03 07:35:34;;;;;;;25.12;15.23;;;;;;;1.76;89.52;101501.41;1761047;81;21016;-51
2021/01/03 07:38:25;;;;;;;19.65;13.45;;;;;;;1.80;89.70;101502.72;1779609;80;20970;-51
2021/01/03 07:41:00;;;;;;;19.37;12.35;;;;;;;1.85;89.65;101495.38;1760861;81;20988;-51
2021/01/03 07:43:27;;;;;;;21.02;13.98;;;;;;;1.86;89.66;101495.70;1779524;80;21421;-51
2021/01/03 07:45:55;;;;;;;19.15;13.18;;;;;;;1.88;89.66;101489.04;1760859;81;21636;-51
2021/01/03 07:48:36;;;;;;;23.60;15.32;;;;;;;1.91;89.69;101498.67;1779390;80;21413;-51
2021/01/03 07:51:09;;;;;;;21.17;15.00;;;;;;;1.97;89.71;101507.91;1783722;80;20978;-51
2021/01/03 07:53:39;;;;;;;14.93;11.57;;;;;;;1.96;89.54;101498.09;1783944;80;20954;-51
2021/01/03 07:56:25;;;;;;;22.00;12.75;;;;;;;2.00;89.64;101490.77;1783576;80;21278;-51
2021/01/03 07:58:54;;;;;;;18.12;13.15;;;;;;;2.02;89.53;101492.77;1783798;80;21033;-51
2021/01/03 08:01:29;;;;;;;19.52;13.13;;;;;;;2.04;89.49;101490.72;1783878;80;21037;-52
2021/01/03 08:03:57;;;;;;;19.57;12.93;;;;;;;2.07;89.55;101493.04;1783807;80;21014;-52
2021/01/03 08:06:24;;;;;;;23.18;15.48;;;;;;;2.19;89.63;101497.97;1783772;80;20994;-52
2021/01/03 08:08:54;;;;;;;21.40;13.90;;;;;;;2.25;89.32;101493.95;1783950;80;21198;-52
2021/01/03 08:11:39;;;;;;;23.02;14.83;;;;;;;2.27;89.11;101492.41;1783771;80;21038;-52
2021/01/03 08:14:24;;;;;;;20.92;14.13;;;;;;;2.26;88.85;101481.25;1783887;80;20970;-52
2021/01/03 08:16:54;;;;;;;26.62;16.10;;;;;;;2.28;88.93;101486.48;1783812;80;21021;-52
2021/01/03 08:19:21;;;;;;;23.83;15.95;;;;;;;2.29;88.87;101494.92;1758445;80;21013;-52
2021/01/03 08:21:59;;;;;;;24.23;15.63;;;;;;;2.32;88.82;101495.91;1783808;80;21280;-52
2021/01/03 08:24:28;;;;;;;21.85;14.35;;;;;;;2.36;88.82;101491.27;1783862;80;21057;-52
2021/01/03 08:27:02;;;;;;;20.70;14.53;;;;;;;2.40;88.70;101495.27;1784117;80;21005;-52
2021/01/03 08:29:47;;;;;;;21.37;14.78;;;;;;;2.42;88.65;101494.55;1783971;80;20997;-52
2021/01/03 08:32:18;;;;;;;21.17;14.28;;;;;;;2.48;88.62;101502.95;1784114;80;21045;-52
2021/01/03 08:34:46;;;;;;;23.50;16.73;;;;;;;2.51;88.54;101513.41;1783868;80;21180;-52
2021/01/03 08:37:28;;;;;;;20.70;15.08;;;;;;;2.53;88.31;101508.63;1783808;80;21654;-52
2021/01/03 08:39:56;;;;;;;27.10;16.37;;;;;;;2.52;88.24;101517.81;1783988;80;20989;-52
2021/01/03 08:42:32;;;;;;;26.40;15.20;;;;;;;2.49;88.10;101514.14;1783944;80;21037;-52
2021/01/03 08:44:59;;;;;;;31.12;17.05;;;;;;;2.41;88.23;101509.16;1783659;80;21052;-51
2021/01/03 08:47:40;;;;;;;28.25;18.40;;;;;;;2.41;88.40;101513.73;1783870;80;21992;-52
2021/01/03 08:50:17;;;;;;;25.85;18.07;;;;;;;2.46;88.60;101514.50;1783853;80;20991;-52
2021/01/03 08:53:02;;;;;;;33.18;18.42;;;;;;;2.54;88.58;101508.46;1783889;80;21029;-52
2021/01/03 08:55:35;;;;;;;32.45;19.65;;;;;;;2.53;88.32;101515.41;1783440;80;21014;-52
2021/01/03 08:58:18;;;;;;;32.15;18.42;;;;;;;2.53;88.30;101510.84;1783813;80;21497;-51
2021/01/03 09:00:50;;;;;;;31.97;20.08;;;;;;;2.54;88.38;101500.81;1783993;80;22117;-52
2021/01/03 09:03:20;;;;;;;30.70;20.20;;;;;;;2.58;88.23;101506.19;1783760;80;20986;-52
2021/01/03 09:05:49;;;;;;;32.40;19.98;;;;;;;2.61;88.25;101511.22;1783654;80;21042;-52
2021/01/03 09:08:33;;;;;;;30.05;18.80;;;;;;;2.64;88.04;101507.28;1783667;80;22072;-52
2021/01/03 09:11:07;;;;;;;29.15;19.50;;;;;;;2.65;87.95;101507.61;1783896;80;21564;-52
2021/01/03 09:13:36;;;;;;;27.30;18.62;;;;;;;2.66;87.88;101510.12;1783848;80;21029;-51
2021/01/03 09:16:34;;;;;;;30.20;18.45;;;;;;;2.69;87.46;101515.16;1755455;80;21596;-50
2021/01/03 09:19:25;;;;;;;28.77;18.87;;;;;;;2.64;87.06;101514.06;1783954;80;21053;-52
2021/01/03 09:21:56;;;;;;;26.05;17.25;;;;;;;2.59;87.09;101511.94;1783784;80;21033;-50
2021/01/03 09:24:31;;;;;;;29.82;18.92;;;;;;;2.65;87.13;101516.58;1783776;80;21038;-53
2021/01/03 09:27:05;;;;;;;28.07;19.87;;;;;;;2.71;86.89;101509.53;1783885;80;22324;-51
2021/01/03 09:29:39;;;;;;;28.73;19.73;;;;;;;2.70;86.42;101516.84;1783731;80;20986;-51
2021/01/03 09:32:18;;;;;;;25.08;18.07;;;;;;;2.64;86.13;101521.67;1783839;80;21013;-51
2021/01/03 09:35:11;;;;;;;38.53;20.68;;;;;;;2.60;86.13;101523.09;1782900;80;21793;-51
2021/01/03 09:37:40;;;;;;;31.48;20.45;;;;;;;2.57;86.05;101513.98;1783989;80;20994;-52
2021/01/03 09:40:40;;;;;;;29.05;17.23;;;;;;;2.55;86.07;101516.90;1783916;80;21371;-52
2021/01/03 09:43:34;;;;;;;28.65;19.23;;;;;;;2.54;86.06;101507.10;1783753;80;22004;-52
2021/01/03 09:46:36;;;;;;;27.93;18.48;;;;;;;2.51;85.91;101513.41;1783842;80;21037;-52
2021/01/03 09:49:39;;;;;;;37.55;21.68;;;;;;;2.51;86.06;101507.99;1783665;80;20974;-52
2021/01/03 09:52:34;;;;;;;31.90;18.23;;;;;;;2.52;85.75;101502.89;1783789;80;20978;-51
2021/01/03 09:55:09;;;;;;;27.05;19.45;;;;;;;2.50;85.76;101506.30;1783875;80;21846;-52
2021/01/03 09:58:00;;;;;;;29.60;18.37;;;;;;;2.49;85.85;101508.19;1783754;80;21037;-52
2021/01/03 10:00:55;;;;;;;24.57;16.30;;;;;;;2.47;85.69;101493.13;1783418;80;21037;-52
2021/01/03 10:03:44;;;;;;;27.20;18.25;;;;;;;2.50;85.75;101494.95;1783768;80;20997;-52
2021/01/03 10:06:31;;;;;;;20.95;15.38;;;;;;;2.52;85.51;101498.30;1783887;80;21018;-50
2021/01/03 10:09:18;;;;;;;28.40;18.75;;;;;;;2.53;85.41;101495.06;1783750;80;22393;-51
2021/01/03 10:11:46;;;;;;;30.60;18.02;;;;;;;2.57;85.46;101485.50;1783577;80;21073;-51
2021/01/03 10:14:31;;;;;;;30.48;19.45;;;;;;;2.59;85.13;101491.59;1783958;80;21628;-52
2021/01/03 10:17:20;;;;;;;28.92;18.95;;;;;;;2.58;85.08;101482.59;1783106;80;21029;-51
2021/01/03 10:19:48;;;;;;;26.37;17.07;;;;;;;2.59;85.32;101480.74;1783855;80;21013;-51
2021/01/03 10:22:41;;;;;;;24.98;17.92;;;;;;;2.70;85.37;101487.50;1783765;80;21205;-51
2021/01/03 10:25:12;;;;;;;25.57;16.95;;;;;;;2.72;84.48;101479.49;1783841;80;21022;-51
2021/01/03 10:27:40;;;;;;;25.05;15.88;;;;;;;2.67;84.52;101485.19;1783890;80;21661;-51
2021/01/03 10:30:09;;;;;;;30.25;17.67;;;;;;;2.72;84.76;101481.37;1783563;80;20986;-52
2021/01/03 10:32:38;;;;;;;32.58;18.82;;;;;;;2.80;84.54;101484.46;1783826;80;21480;-52
2021/01/03 10:35:08;;;;;;;32.83;18.40;;;;;;;2.84;84.61;101468.11;1783672;80;21197;-52
2021/01/03 10:37:35;;;;;;;28.75;18.90;;;;;;;2.93;84.01;101459.64;1784100;80;21600;-52
2021/01/03 10:40:05;;;;;;;33.33;20.12;;;;;;;2.91;83.87;101458.15;1783802;80;21017;-52
2021/01/03 10:42:33;;;;;;;22.70;16.35;;;;;;;2.89;83.72;101456.16;1783932;80;21555;-52
2021/01/03 10:45:01;;;;;;;27.40;19.60;;;;;;;2.86;83.75;101451.10;1783967;80;21568;-52
2021/01/03 10:47:28;;;;;;;29.27;19.37;;;;;;;2.88;83.83;101459.91;1783972;80;21206;-52
2021/01/03 10:49:56;;;;;;;25.27;16.87;;;;;;;2.90;83.55;101455.11;1783797;80;21065;-53
2021/01/03 10:52:23;;;;;;;25.52;18.87;;;;;;;2.86;83.40;101445.67;1783963;80;21448;-52
2021/01/03 10:54:51;;;;;;;28.38;18.17;;;;;;;2.85;83.59;101445.38;1783926;80;22078;-52
2021/01/03 10:57:18;;;;;;;37.75;19.12;;;;;;;2.88;83.59;101442.27;1784013;80;20998;-53
2021/01/03 10:59:45;;;;;;;31.55;21.55;;;;;;;2.87;83.48;101443.30;1783792;80;21144;-52
2021/01/03 11:02:13;;;;;;;31.23;20.57;;;;;;;2.90;83.53;101432.03;1783815;80;21061;-52
2021/01/03 11:04:40;;;;;;;32.35;21.37;;;;;;;2.98;83.71;101440.03;1783894;80;21597;-52
2021/01/03 11:07:09;;;;;;;28.87;20.57;;;;;;;3.09;83.64;101434.59;1783775;80;20970;-53
2021/01/03 11:09:37;;;;;;;32.10;18.87;;;;;;;3.18;83.46;101438.80;1755635;80;21607;-52
2021/01/03 11:12:09;;;;;;;31.75;21.35;;;;;;;3.24;83.12;101442.10;1783963;80;21353;-53
2021/01/03 11:14:39;;;;;;;31.87;21.52;;;;;;;3.24;82.69;101443.95;1783896;80;21021;-53
2021/01/03 11:17:08;;;;;;;37.78;20.25;;;;;;;3.24;82.70;101450.25;1783891;80;20938;-53
2021/01/03 11:19:36;;;;;;;32.45;19.65;;;;;;;3.23;82.27;101447.70;1783900;80;21042;-52
2021/01/03 11:22:07;;;;;;;24.05;16.93;;;;;;;3.19;81.85;101431.52;1784026;80;21045;-52
2021/01/03 11:24:34;;;;;;;30.65;16.60;;;;;;;3.08;81.31;101439.69;1783951;80;21363;-52
2021/01/03 11:27:03;;;;;;;28.92;16.75;;;;;;;2.96;81.74;101440.77;1783785;80;21013;-53
2021/01/03 11:29:32;;;;;;;29.65;18.70;;;;;;;2.94;82.03;101444.17;1783410;80;20997;-53
2021/01/03 11:32:00;;;;;;;24.87;17.07;;;;;;;2.93;81.98;101438.45;1783818;80;21005;-53
2021/01/03 11:34:30;;;;;;;26.60;16.48;;;;;;;2.90;81.92;101436.97;1784014;80;21607;-52
2021/01/03 11:37:05;;;;;;;26.85;17.07;;;;;;;2.92;82.11;101438.13;1783816;80;21192;-52
2021/01/03 11:39:32;;;;;;;27.77;17.48;;;;;;;2.91;81.95;101433.19;1783811;80;21069;-52
2021/01/03 11:42:05;;;;;;;28.60;18.27;;;;;;;2.93;82.24;101433.85;1783958;80;21058;-53
2021/01/03 11:44:34;;;;;;;25.02;19.17;;;;;;;3.01;82.22;101434.20;1783889;80;21057;-53
2021/01/03 11:47:05;;;;;;;27.95;18.30;;;;;;;3.10;82.25;101434.39;1783772;80;21025;-52
2021/01/03 11:49:33;;;;;;;28.12;16.60;;;;;;;3.19;81.93;101422.02;1784000;80;22297;-52
2021/01/03 11:52:02;;;;;;;23.30;16.87;;;;;;;3.19;81.71;101432.34;1780314;80;21041;-51
2021/01/03 11:54:29;;;;;;;79.10;35.88;;;;;;;3.21;81.56;101436.22;1779473;80;20974;-51